createdAt,value
2022-09-20T00:00:03.050Z,99759.36
2022-09-20T00:02:34.356Z,99752.73
2022-09-20T00:05:07.535Z,99760.41
2022-09-20T00:07:39.282Z,99763.08
2022-09-20T00:10:14.640Z,99765.54
2022-09-20T00:12:46.369Z,99766.93
2022-09-20T00:15:17.899Z,99768.29
2022-09-20T00:17:49.086Z,99769.49
2022-09-20T00:20:20.499Z,99773.94
2022-09-20T00:22:52.248Z,99772.59
2022-09-20T00:25:23.891Z,99771.74
2022-09-20T00:27:55.190Z,99772.98
2022-09-20T00:30:26.245Z,99776.89
2022-09-20T00:32:57.528Z,99773.58
2022-09-20T00:35:30.193Z,99773.10
2022-09-20T00:38:01.500Z,99776.17
2022-09-20T00:40:33.082Z,99775.40
2022-09-20T00:43:04.452Z,99773.56
2022-09-20T00:45:37.276Z,99775.57
2022-09-20T00:48:13.537Z,99777.64
2022-09-20T00:50:50.466Z,99778.54
2022-09-20T00:53:26.482Z,99776.26
2022-09-20T00:56:01.334Z,99778.45
2022-09-20T00:58:36.580Z,99775.29
2022-09-20T01:01:08.309Z,99775.88
2022-09-20T01:03:41.224Z,99778.73
2022-09-20T01:06:16.988Z,99775.48
2022-09-20T01:08:53.136Z,99769.16
2022-09-20T01:11:24.558Z,99774.19
2022-09-20T01:13:55.989Z,99772.84
2022-09-20T01:16:29.255Z,99775.25
2022-09-20T01:19:04.080Z,99772.58
2022-09-20T01:21:35.940Z,99772.39
2022-09-20T01:24:15.976Z,99775.81
2022-09-20T01:27:14.975Z,99779.70
2022-09-20T01:30:05.010Z,99784.84
2022-09-20T01:32:45.317Z,99784.11
2022-09-20T01:35:21.557Z,99782.73
2022-09-20T01:38:07.574Z,99786.31
2022-09-20T01:40:48.179Z,99783.88
2022-09-20T01:43:28.656Z,99786.22
2022-09-20T01:46:06.269Z,99785.51
2022-09-20T01:48:41.923Z,99787.40
2022-09-20T01:51:49.319Z,99790.44
2022-09-20T01:54:50.309Z,99791.60
2022-09-20T01:57:52.036Z,99786.87
2022-09-20T02:00:25.490Z,99785.02
2022-09-20T02:03:29.501Z,99784.09
2022-09-20T02:06:21.040Z,99782.84
2022-09-20T02:09:28.379Z,99783.96
2022-09-20T02:12:25.310Z,99783.45
2022-09-20T02:15:07.358Z,99788.30
2022-09-20T02:17:50.071Z,99790.55
2022-09-20T02:20:33.385Z,99795.06
2022-09-20T02:23:23.121Z,99793.47
2022-09-20T02:26:11.972Z,99797.37
2022-09-20T02:29:03.620Z,99794.94
2022-09-20T02:31:52.559Z,99799.23
2022-09-20T02:34:56.986Z,99804.04
2022-09-20T02:37:49.754Z,99807.12
2022-09-20T02:40:39.721Z,99798.61
2022-09-20T02:43:23.006Z,99802.88
2022-09-20T02:46:03.060Z,99808.02
2022-09-20T02:48:44.991Z,99811.86
2022-09-20T02:51:23.562Z,99813.38
2022-09-20T02:54:06.131Z,99815.28
2022-09-20T02:56:44.423Z,99814.73
2022-09-20T02:59:32.772Z,99814.55
2022-09-20T03:02:16.247Z,99818.42
2022-09-20T03:05:03.510Z,99814.80
2022-09-20T03:07:41.392Z,99815.34
2022-09-20T03:10:20.405Z,99822.52
2022-09-20T03:13:07.803Z,99816.42
2022-09-20T03:15:50.151Z,99818.45
2022-09-20T03:18:31.134Z,99818.08
2022-09-20T03:21:12.976Z,99818.08
2022-09-20T03:23:56.275Z,99820.23
2022-09-20T03:26:43.924Z,99822.25
2022-09-20T03:29:30.624Z,99821.77
2022-09-20T03:32:22.891Z,99816.56
2022-09-20T03:35:08.757Z,99821.98
2022-09-20T03:38:04.273Z,99820.41
2022-09-20T03:40:53.723Z,99823.02
2022-09-20T03:43:39.462Z,99827.73
2022-09-20T03:46:20.122Z,99826.90
2022-09-20T03:49:11.939Z,99829.03
2022-09-20T03:51:56.012Z,99836.70
2022-09-20T03:54:45.443Z,99837.23
2022-09-20T03:57:43.418Z,99836.98
2022-09-20T04:00:37.440Z,99841.71
2022-09-20T04:03:24.262Z,99840.98
2022-09-20T04:06:11.120Z,99842.93
2022-09-20T04:09:02.460Z,99845.64
2022-09-20T04:11:42.931Z,99848.39
2022-09-20T04:14:19.641Z,99849.74
2022-09-20T04:16:57.145Z,99843.92
2022-09-20T04:19:35.141Z,99846.48
2022-09-20T04:22:07.871Z,99851.40
2022-09-20T04:24:47.893Z,99844.78
2022-09-20T04:27:25.241Z,99849.45
2022-09-20T04:30:05.700Z,99845.06
2022-09-20T04:32:42.458Z,99846.23
2022-09-20T04:35:44.156Z,99847.23
2022-09-20T04:38:18.874Z,99854.61
2022-09-20T04:40:58.648Z,99859.95
2022-09-20T04:44:06.743Z,99862.09
2022-09-20T04:47:06.229Z,99863.48
2022-09-20T04:50:20.924Z,99868.23
2022-09-20T04:53:25.085Z,99871.17
2022-09-20T04:56:02.450Z,99870.73
2022-09-20T04:58:49.062Z,99872.92
2022-09-20T05:02:03.702Z,99874.48
2022-09-20T05:05:16.334Z,99879.02
2022-09-20T05:08:18.099Z,99885.34
2022-09-20T05:11:30.751Z,99891.59
2022-09-20T05:17:20.696Z,99910.16
2022-09-20T05:20:24.380Z,99911.83
2022-09-20T05:23:11.489Z,99915.28
2022-09-20T05:26:08.857Z,99917.20
2022-09-20T05:28:51.230Z,99913.02
2022-09-20T05:31:32.037Z,99922.96
2022-09-20T05:34:11.879Z,99928.91
2022-09-20T05:36:55.695Z,99932.35
2022-09-20T05:39:38.134Z,99932.05
2022-09-20T05:42:19.280Z,99935.60
2022-09-20T05:45:09.152Z,99936.71
2022-09-20T05:47:48.624Z,99938.10
2022-09-20T05:50:35.678Z,99938.12
2022-09-20T05:53:47.929Z,99938.79
2022-09-20T05:56:28.310Z,99939.90
2022-09-20T05:59:17.469Z,99939.13
2022-09-20T06:02:00.562Z,99937.92
2022-09-20T06:04:40.105Z,99938.23
2022-09-20T06:07:23.240Z,99949.16
2022-09-20T06:10:23.267Z,99947.77
2022-09-20T06:13:02.083Z,99953.18
2022-09-20T06:15:47.100Z,99955.96
2022-09-20T06:18:28.838Z,99953.17
2022-09-20T06:21:11.512Z,99958.70
2022-09-20T06:23:42.789Z,99959.63
2022-09-20T06:26:19.198Z,99962.31
2022-09-20T06:28:58.212Z,99959.84
2022-09-20T06:31:30.284Z,99963.98
2022-09-20T06:34:06.012Z,99962.13
2022-09-20T06:37:05.162Z,99962.15
2022-09-20T06:40:01.746Z,99962.66
2022-09-20T06:42:33.528Z,99959.02
2022-09-20T06:45:05.294Z,99956.62
2022-09-20T06:47:38.885Z,99958.02
2022-09-20T06:50:16.710Z,99958.31
2022-09-20T06:52:49.552Z,99957.81
2022-09-20T06:55:29.424Z,99960.95
2022-09-20T06:58:01.355Z,99962.99
2022-09-20T07:00:33.425Z,99963.98
2022-09-20T07:03:05.610Z,99965.59
2022-09-20T07:05:39.282Z,99967.14
2022-09-20T07:08:10.946Z,99969.29
2022-09-20T07:10:43.665Z,99971.14
2022-09-20T07:13:15.234Z,99978.95
2022-09-20T07:15:46.668Z,99979.52
2022-09-20T07:18:18.197Z,99980.80
2022-09-20T07:20:49.657Z,99988.17
2022-09-20T07:23:20.881Z,99992.95
2022-09-20T07:25:52.336Z,99998.39
2022-09-20T07:28:23.521Z,100002.38
2022-09-20T07:30:54.838Z,100004.23
2022-09-20T07:33:26.239Z,100008.48
2022-09-20T07:35:58.226Z,100011.16
2022-09-20T07:38:29.653Z,100014.31
2022-09-20T07:41:02.837Z,100017.55
2022-09-20T07:43:34.793Z,100014.98
2022-09-20T07:46:07.381Z,100011.79
2022-09-20T07:48:38.971Z,100012.85
2022-09-20T07:51:13.029Z,100016.51
2022-09-20T07:53:44.594Z,100016.29
2022-09-20T07:56:19.776Z,100023.84
2022-09-20T07:58:52.551Z,100022.45
2022-09-20T08:01:23.844Z,100023.73
2022-09-20T08:03:57.368Z,100023.27
2022-09-20T08:06:28.839Z,100024.02
2022-09-20T08:09:00.038Z,100029.48
2022-09-20T08:11:31.984Z,100028.91
2022-09-20T08:14:05.723Z,100030.55
2022-09-20T08:16:43.248Z,100036.39
2022-09-20T08:19:18.751Z,100038.05
2022-09-20T08:21:50.446Z,100044.98
2022-09-20T08:24:21.771Z,100044.73
2022-09-20T08:26:52.931Z,100042.69
2022-09-20T08:29:24.430Z,100046.89
2022-09-20T08:31:58.426Z,100053.55
2022-09-20T08:34:29.956Z,100055.88
2022-09-20T08:37:01.124Z,100053.48
2022-09-20T08:42:33.848Z,100054.72
2022-09-20T08:45:22.203Z,100060.14
2022-09-20T08:47:58.871Z,100058.80
2022-09-20T08:50:30.776Z,100063.61
2022-09-20T08:53:05.470Z,100058.41
2022-09-20T08:55:36.869Z,100065.52
2022-09-20T08:58:12.037Z,100066.52
2022-09-20T09:00:45.941Z,100069.83
2022-09-20T09:03:19.298Z,100074.95
2022-09-20T09:05:53.080Z,100076.55
2022-09-20T09:08:27.601Z,100076.99
2022-09-20T09:11:08.763Z,100078.51
2022-09-20T09:13:48.917Z,100084.00
2022-09-20T09:16:27.217Z,100081.54
2022-09-20T09:19:20.119Z,100081.35
2022-09-20T09:21:51.549Z,100078.81
2022-09-20T09:24:25.887Z,100080.28
2022-09-20T09:27:10.526Z,100076.21
2022-09-20T09:29:53.142Z,100078.98
2022-09-20T09:32:29.280Z,100078.77
2022-09-20T09:35:23.364Z,100074.52
2022-09-20T09:37:59.526Z,100070.04
2022-09-20T09:40:32.462Z,100072.23
2022-09-20T09:43:05.171Z,100069.76
2022-09-20T09:45:38.845Z,100068.90
2022-09-20T09:48:24.416Z,100068.55
2022-09-20T09:51:11.336Z,100063.71
2022-09-20T09:53:43.623Z,100062.77
2022-09-20T09:56:27.547Z,100063.88
2022-09-20T09:59:20.666Z,100068.67
2022-09-20T10:02:00.111Z,100063.79
2022-09-20T10:04:37.946Z,100065.24
2022-09-20T10:07:16.006Z,100067.19
2022-09-20T10:10:07.745Z,100069.52
2022-09-20T10:12:56.958Z,100068.99
2022-09-20T10:15:44.930Z,100069.23
2022-09-20T10:18:36.811Z,100068.26
2022-09-20T10:21:19.905Z,100069.38
2022-09-20T10:24:04.485Z,100073.60
2022-09-20T10:26:45.468Z,100075.66
2022-09-20T10:29:29.274Z,100079.50
2022-09-20T10:32:14.060Z,100079.15
2022-09-20T10:35:06.440Z,100082.66
2022-09-20T10:37:49.479Z,100078.41
2022-09-20T10:40:51.752Z,100083.55
2022-09-20T10:43:42.132Z,100084.18
2022-09-20T10:46:38.250Z,100084.67
2022-09-20T10:49:24.978Z,100089.77
2022-09-20T10:52:10.587Z,100091.19
2022-09-20T10:54:56.459Z,100089.40
2022-09-20T10:57:48.930Z,100086.50
2022-09-20T11:00:27.044Z,100092.56
2022-09-20T11:03:17.196Z,100093.17
2022-09-20T11:05:59.442Z,100095.71
2022-09-20T11:08:35.090Z,100095.52
2022-09-20T11:11:10.625Z,100095.69
2022-09-20T11:13:47.076Z,100095.25
2022-09-20T11:16:24.118Z,100096.65
2022-09-20T11:19:00.600Z,100095.98
2022-09-20T11:21:38.864Z,100093.46
2022-09-20T11:24:22.394Z,100098.52
2022-09-20T11:26:56.252Z,100101.45
2022-09-20T11:29:32.602Z,100101.21
2022-09-20T11:32:11.648Z,100099.05
2022-09-20T11:34:53.730Z,100100.25
2022-09-20T11:37:29.929Z,100097.70
2022-09-20T11:40:07.054Z,100097.79
2022-09-20T11:42:41.519Z,100100.08
2022-09-20T11:45:15.769Z,100095.74
2022-09-20T11:47:54.980Z,100100.29
2022-09-20T11:51:04.771Z,100095.90
2022-09-20T11:53:52.248Z,100093.41
2022-09-20T11:56:25.919Z,100093.36
2022-09-20T11:58:59.942Z,100086.66
2022-09-20T12:01:33.951Z,100091.86
2022-09-20T12:04:32.891Z,100088.34
2022-09-20T12:07:11.438Z,100089.11
2022-09-20T12:09:45.649Z,100094.14
2022-09-20T12:12:33.113Z,100095.02
2022-09-20T12:15:07.702Z,100091.41
2022-09-20T12:17:54.456Z,100089.10
2022-09-20T12:21:06.174Z,100092.58
2022-09-20T12:24:04.077Z,100089.33
2022-09-20T12:26:46.530Z,100086.80
2022-09-20T12:29:51.558Z,100082.58
2022-09-20T12:32:44.236Z,100081.11
2022-09-20T12:36:00.671Z,100083.70
2022-09-20T12:38:38.416Z,100086.56
2022-09-20T12:41:13.431Z,100084.94
2022-09-20T12:44:04.165Z,100087.03
2022-09-20T12:46:53.208Z,100086.13
2022-09-20T12:49:52.589Z,100086.98
2022-09-20T12:53:00.902Z,100081.92
2022-09-20T12:55:47.289Z,100081.35
2022-09-20T12:58:38.293Z,100073.70
2022-09-20T13:01:31.201Z,100073.80
2022-09-20T13:04:37.016Z,100073.50
2022-09-20T13:07:51.209Z,100071.29
2022-09-20T13:10:29.486Z,100074.21
2022-09-20T13:13:06.274Z,100071.03
2022-09-20T13:15:38.212Z,100069.65
2022-09-20T13:18:15.697Z,100073.89
2022-09-20T13:20:47.705Z,100069.38
2022-09-20T13:23:25.030Z,100064.02
2022-09-20T13:25:59.267Z,100066.16
2022-09-20T13:28:41.082Z,100070.05
2022-09-20T13:31:26.420Z,100072.66
2022-09-20T13:34:13.716Z,100072.45
2022-09-20T13:36:45.346Z,100074.36
2022-09-20T13:39:31.269Z,100073.08
2022-09-20T13:42:11.859Z,100073.02
2022-09-20T13:44:44.028Z,100073.54
2022-09-20T13:47:29.733Z,100074.19
2022-09-20T13:50:18.455Z,100074.63
2022-09-20T13:52:51.794Z,100074.48
2022-09-20T13:55:30.838Z,100074.47
2022-09-20T13:58:04.525Z,100075.20
2022-09-20T14:00:38.229Z,100079.75
2022-09-20T14:03:17.489Z,100079.30
2022-09-20T14:05:52.213Z,100073.98
2022-09-20T14:08:28.378Z,100067.77
2022-09-20T14:11:13.438Z,100070.23
2022-09-20T14:13:46.443Z,100072.71
2022-09-20T14:16:19.231Z,100081.50
2022-09-20T14:18:52.524Z,100079.23
2022-09-20T14:21:26.881Z,100082.25
2022-09-20T14:24:02.354Z,100075.75
2022-09-20T14:26:36.549Z,100075.99
2022-09-20T14:29:31.877Z,100072.81
2022-09-20T14:32:03.551Z,100071.84
2022-09-20T14:34:36.789Z,100072.45
2022-09-20T14:37:13.895Z,100071.77
2022-09-20T14:39:51.864Z,100071.39
2022-09-20T14:42:28.242Z,100069.88
2022-09-20T14:45:00.044Z,100069.13
2022-09-20T14:47:38.382Z,100071.00
2022-09-20T14:50:26.410Z,100072.27
2022-09-20T14:53:21.015Z,100075.59
2022-09-20T14:56:11.968Z,100071.45
2022-09-20T14:59:04.860Z,100069.68
2022-09-20T15:01:37.605Z,100074.24
2022-09-20T15:04:21.143Z,100078.31
2022-09-20T15:06:53.608Z,100091.05
2022-09-20T15:09:25.161Z,100095.46
2022-09-20T15:12:05.765Z,100099.37
2022-09-20T15:14:38.050Z,100106.71
2022-09-20T15:17:12.865Z,100103.95
2022-09-20T15:19:42.339Z,100102.39
2022-09-20T15:22:14.460Z,100107.39
2022-09-20T15:24:46.142Z,100107.02
2022-09-20T15:27:17.708Z,100109.01
2022-09-20T15:29:49.083Z,100113.91
2022-09-20T15:32:20.412Z,100118.41
2022-09-20T15:34:51.720Z,100117.31
2022-09-20T15:37:22.854Z,100123.80
2022-09-20T15:39:54.215Z,100130.45
2022-09-20T15:42:25.889Z,100136.08
2022-09-20T15:44:57.223Z,100137.28
2022-09-20T15:47:28.943Z,100143.89
2022-09-20T15:50:00.385Z,100145.54
2022-09-20T15:52:36.947Z,100146.27
2022-09-20T15:55:10.372Z,100149.30
2022-09-20T15:57:42.293Z,100154.26
2022-09-20T16:00:14.999Z,100154.14
2022-09-20T16:02:50.200Z,100153.48
2022-09-20T16:05:21.944Z,100154.63
2022-09-20T16:07:53.337Z,100158.81
2022-09-20T16:10:26.350Z,100155.83
2022-09-20T16:12:58.858Z,100156.64
2022-09-20T16:15:30.410Z,100155.85
2022-09-20T16:18:19.325Z,100156.87
2022-09-20T16:20:50.663Z,100162.22
2022-09-20T16:23:25.901Z,100160.40
2022-09-20T16:25:57.837Z,100159.90
2022-09-20T16:28:29.239Z,100165.02
2022-09-20T16:31:01.729Z,100160.71
2022-09-20T16:33:35.411Z,100164.44
2022-09-20T16:36:08.900Z,100163.70
2022-09-20T16:38:40.566Z,100159.41
2022-09-20T16:41:12.034Z,100158.61
2022-09-20T16:43:44.278Z,100160.96
2022-09-20T16:46:15.611Z,100162.21
2022-09-20T16:48:54.956Z,100162.08
2022-09-20T16:51:27.487Z,100167.05
2022-09-20T16:53:59.627Z,100169.00
2022-09-20T16:56:34.315Z,100171.61
2022-09-20T16:59:04.561Z,100174.08
2022-09-20T17:01:37.269Z,100176.29
2022-09-20T17:04:09.142Z,100183.80
2022-09-20T17:06:41.441Z,100183.60
2022-09-20T17:09:13.478Z,100188.65
2022-09-20T17:11:47.502Z,100190.57
2022-09-20T17:14:20.739Z,100192.38
2022-09-20T17:16:59.349Z,100194.20
2022-09-20T17:19:38.653Z,100193.36
2022-09-20T17:22:17.464Z,100204.48
2022-09-20T17:24:50.526Z,100217.29
2022-09-20T17:27:22.291Z,100219.25
2022-09-20T17:29:53.951Z,100224.92
2022-09-20T17:32:25.209Z,100231.83
2022-09-20T17:34:56.595Z,100235.29
2022-09-20T17:37:28.192Z,100233.98
2022-09-20T17:40:03.465Z,100235.71
2022-09-20T17:42:37.571Z,100232.17
2022-09-20T17:45:13.388Z,100233.50
2022-09-20T17:47:45.012Z,100237.42
2022-09-20T17:50:16.883Z,100236.80
2022-09-20T17:52:48.569Z,100236.45
2022-09-20T17:55:21.133Z,100242.32
2022-09-20T17:57:55.585Z,100243.34
2022-09-20T18:00:27.385Z,100244.76
2022-09-20T18:03:06.679Z,100245.38
2022-09-20T18:05:38.226Z,100255.21
2022-09-20T18:08:09.748Z,100259.22
2022-09-20T18:10:41.164Z,100257.50
2022-09-20T18:13:13.795Z,100266.45
2022-09-20T18:15:48.070Z,100271.22
2022-09-20T18:18:20.322Z,100272.57
2022-09-20T18:20:51.674Z,100276.54
2022-09-20T18:23:22.846Z,100272.69
2022-09-20T18:26:12.640Z,100282.46
2022-09-20T18:28:48.839Z,100288.27
2022-09-20T18:31:21.953Z,100287.82
2022-09-20T18:34:09.894Z,100288.27
2022-09-20T18:36:43.820Z,100290.68
2022-09-20T18:39:15.943Z,100292.54
2022-09-20T18:41:50.282Z,100296.70
2022-09-20T18:44:22.201Z,100294.48
2022-09-20T18:46:55.675Z,100292.05
2022-09-20T18:49:27.473Z,100299.58
2022-09-20T18:52:01.734Z,100298.61
2022-09-20T18:54:33.826Z,100303.46
2022-09-20T18:57:06.753Z,100307.88
2022-09-20T18:59:53.427Z,100307.10
2022-09-20T19:02:49.214Z,100304.11
2022-09-20T19:05:35.441Z,100305.80
2022-09-20T19:08:29.128Z,100307.14
2022-09-20T19:11:05.806Z,100306.80
2022-09-20T19:13:48.759Z,100312.64
2022-09-20T19:16:27.805Z,100317.02
2022-09-20T19:19:19.862Z,100319.84
2022-09-20T19:22:01.179Z,100323.07
2022-09-20T19:24:45.410Z,100324.10
2022-09-20T19:27:18.484Z,100325.74
2022-09-20T19:29:51.171Z,100325.79
2022-09-20T19:32:26.477Z,100324.73
2022-09-20T19:35:02.280Z,100327.81
2022-09-20T19:37:46.377Z,100331.11
2022-09-20T19:40:27.709Z,100332.50
2022-09-20T19:43:17.864Z,100332.59
2022-09-20T19:45:58.615Z,100335.77
2022-09-20T19:48:40.856Z,100330.89
2022-09-20T19:51:17.657Z,100335.77
2022-09-20T19:53:50.760Z,100334.08
2022-09-20T19:56:29.022Z,100334.36
2022-09-20T19:59:01.628Z,100335.44
2022-09-20T20:01:37.706Z,100338.65
2022-09-20T20:04:13.028Z,100342.77
2022-09-20T20:06:53.318Z,100347.60
2022-09-20T20:09:35.301Z,100346.08
2022-09-20T20:12:16.731Z,100346.21
2022-09-20T20:14:58.942Z,100345.48
2022-09-20T20:17:45.506Z,100345.42
2022-09-20T20:20:27.207Z,100353.77
2022-09-20T20:23:21.503Z,100350.38
2022-09-20T20:26:03.142Z,100355.67
2022-09-20T20:28:35.312Z,100359.06
2022-09-20T20:31:12.790Z,100359.59
2022-09-20T20:33:47.058Z,100363.25
2022-09-20T20:36:21.303Z,100368.84
2022-09-20T20:38:55.093Z,100373.94
2022-09-20T20:41:29.476Z,100376.34
2022-09-20T20:44:05.750Z,100380.21
2022-09-20T20:46:38.744Z,100381.85
2022-09-20T20:49:10.642Z,100382.77
2022-09-20T20:51:42.674Z,100379.84
2022-09-20T20:54:14.012Z,100381.55
2022-09-20T20:56:46.133Z,100381.25
2022-09-20T20:59:17.735Z,100381.35
2022-09-20T21:01:49.463Z,100387.39
2022-09-20T21:04:22.021Z,100381.28
2022-09-20T21:06:53.657Z,100382.44
2022-09-20T21:09:25.530Z,100384.45
2022-09-20T21:11:57.032Z,100383.35
2022-09-20T21:14:28.806Z,100386.67
2022-09-20T21:17:00.246Z,100386.52
2022-09-20T21:19:31.646Z,100389.25
2022-09-20T21:22:03.170Z,100385.06
2022-09-20T21:24:34.464Z,100386.77
2022-09-20T21:27:06.117Z,100387.82
2022-09-20T21:29:37.711Z,100382.88
2022-09-20T21:32:09.562Z,100385.92
2022-09-20T21:34:41.488Z,100388.85
2022-09-20T21:37:12.939Z,100389.92
2022-09-20T21:39:44.392Z,100391.02
2022-09-20T21:42:17.371Z,100389.45
2022-09-20T21:44:48.602Z,100392.45
2022-09-20T21:47:20.443Z,100395.02
2022-09-20T21:49:52.054Z,100394.20
2022-09-20T21:52:23.203Z,100394.13
2022-09-20T21:54:54.449Z,100398.31
2022-09-20T21:57:25.688Z,100398.40
2022-09-20T21:59:57.070Z,100399.74
2022-09-20T22:02:28.539Z,100403.23
2022-09-20T22:05:00.118Z,100400.51
2022-09-20T22:07:31.509Z,100400.38
2022-09-20T22:10:02.769Z,100398.84
2022-09-20T22:12:34.166Z,100400.09
2022-09-20T22:15:06.382Z,100404.57
2022-09-20T22:17:38.199Z,100408.34
2022-09-20T22:20:10.889Z,100411.09
2022-09-20T22:25:33.891Z,100414.32
2022-09-20T22:28:05.584Z,100413.42
2022-09-20T22:30:38.007Z,100417.67
2022-09-20T22:33:09.481Z,100414.98
2022-09-20T22:35:47.177Z,100413.62
2022-09-20T22:38:18.918Z,100415.55
2022-09-20T22:40:57.473Z,100418.60
2022-09-20T22:43:29.000Z,100419.39
2022-09-20T22:46:05.680Z,100416.29
2022-09-20T22:48:38.305Z,100419.84
2022-09-20T22:51:12.460Z,100415.83
2022-09-20T22:53:45.485Z,100414.79
2022-09-20T22:56:18.875Z,100413.20
2022-09-20T22:58:52.973Z,100412.48
2022-09-20T23:01:26.356Z,100415.45
2022-09-20T23:03:59.392Z,100417.06
2022-09-20T23:06:34.410Z,100412.72
2022-09-20T23:09:08.214Z,100412.52
2022-09-20T23:11:42.181Z,100413.42
2022-09-20T23:14:16.116Z,100415.46
2022-09-20T23:16:48.555Z,100412.30
2022-09-20T23:19:20.658Z,100412.73
2022-09-20T23:21:51.747Z,100417.54
2022-09-20T23:24:23.006Z,100415.35
2022-09-20T23:26:54.093Z,100419.08
2022-09-20T23:29:26.734Z,100419.66
2022-09-20T23:31:57.985Z,100421.77
2022-09-20T23:34:29.060Z,100426.39
2022-09-20T23:40:04.658Z,100422.59
2022-09-20T23:42:37.231Z,100425.60
2022-09-20T23:45:11.991Z,100424.80
2022-09-20T23:47:41.432Z,100424.67
2022-09-20T23:50:13.202Z,100426.45
2022-09-20T23:52:44.612Z,100428.94
2022-09-20T23:55:16.820Z,100427.08
2022-09-20T23:57:49.338Z,100427.37
